Главная страница
METAR-TAF:

METAR-TAF

Аэропорты :

Meierwik

Глюксбург, Германия

широта: 54-50N, долгота: 009-30E, высота над уровнем моря: 27 м

Текущие метеонаблюдения

Эта сводка был подготовлена 1 час и 2 минут назад, в 05:20 UTC
Ветер 16 Узел от южный с порывами до 26 Узел
Температура 18°C
Влажность 64%
Давление 998 hPa
Видимость 10 км и более
небольшая облачность на высоте 6000 фута
Рассеянная облачность на высоте 18000 фута

METAR: ETGG 210520Z 18016G26KT 9999 FEW060 BKN180 18/11 Q0998 BLU

Время: 08:22 (06:22 UTC)


TAF: отсутствует

Метеонаблюдения и прогнозы для более 4000 аэропортов (сводки METAR и TAF).

Имеющиеся станции представлены на карте желтыми и красными точками.

Чтобы увидеть название станции, наведите на нее мышь.

Затем щелкните, чтобы увидеть метеонаблюдения и метеопрогнозы.

Управление картой: чтобы увеличить масштаб, щелкните зеленые кнопки с черным крестиком; чтобы уменьшить масштаб, щелкните зеленую кнопку с тире; для просмотра соседних карт щелкайте зеленые стрелки.


METAR-TAF: